Time;durP1;ratioP1;P1;durP2;ratioP2;P2;SDS_P1;SDS_P2;PMS_P1;PMS_P2;Temp;Humidity;BMP_temperature;BMP_pressure;BME280_temperature;BME280_humidity;BME280_pressure;Samples;Min_cycle;Max_cycle;Signal;HPM_P1;HPM_P2
2021/08/20 00:00:34;;;;;;;22.50;13.30;;;;;;;15.76;98.00;100748.34;111334;1203;59437;-81
2021/08/20 00:03:01;;;;;;;23.50;13.70;;;;;;;15.79;98.00;100750.48;111428;1205;59505;-81
2021/08/20 00:05:28;;;;;;;20.90;13.30;;;;;;;15.80;97.79;100750.34;111382;1204;73141;-81
2021/08/20 00:07:55;;;;;;;20.90;13.30;;;;;;;15.82;97.50;100747.91;111347;1195;59716;-81
2021/08/20 00:10:21;;;;;;;20.80;13.50;;;;;;;15.84;97.17;100743.91;111306;1205;73677;-81
2021/08/20 00:12:48;;;;;;;13.40;8.70;;;;;;;15.85;96.52;100743.38;111505;1205;59398;-86
2021/08/20 00:15:15;;;;;;;17.60;11.80;;;;;;;15.86;96.26;100736.63;111523;1205;61286;-81
2021/08/20 00:17:42;;;;;;;17.80;13.00;;;;;;;15.87;95.98;100737.08;111342;1203;74046;-80
2021/08/20 00:20:09;;;;;;;15.60;10.50;;;;;;;15.88;96.09;100737.23;111918;1205;71977;-80
2021/08/20 00:22:36;;;;;;;16.40;11.40;;;;;;;15.90;95.82;100735.91;111403;1204;73525;-81
2021/08/20 00:25:03;;;;;;;21.10;12.60;;;;;;;15.93;95.81;100734.84;111480;1204;63027;-79
2021/08/20 00:27:30;;;;;;;22.50;14.40;;;;;;;15.95;95.60;100736.54;111207;1204;60263;-81
2021/08/20 00:29:56;;;;;;;15.20;11.10;;;;;;;15.98;95.48;100734.58;111436;1202;72827;-79
2021/08/20 00:32:23;;;;;;;21.30;12.50;;;;;;;15.98;95.23;100732.23;111407;1203;71062;-81
2021/08/20 00:34:50;;;;;;;19.30;13.00;;;;;;;15.98;95.27;100731.09;111182;1200;59456;-81
2021/08/20 00:37:16;;;;;;;21.10;13.40;;;;;;;16.00;95.22;100733.73;111465;1205;61898;-81
2021/08/20 00:39:43;;;;;;;17.30;12.10;;;;;;;16.01;95.11;100733.55;111651;1204;60220;-80
2021/08/20 00:42:11;;;;;;;18.70;12.40;;;;;;;16.02;95.05;100728.28;111556;1200;74193;-81
2021/08/20 00:44:38;;;;;;;18.10;11.50;;;;;;;16.02;95.03;100729.98;111381;1203;71327;-81
2021/08/20 00:47:05;;;;;;;15.60;10.40;;;;;;;16.04;94.93;100733.00;111341;1205;59476;-80
2021/08/20 00:49:31;;;;;;;18.00;12.40;;;;;;;16.04;94.86;100731.27;111393;1203;62897;-80
2021/08/20 00:51:58;;;;;;;17.30;11.50;;;;;;;16.07;94.94;100732.38;111307;1205;61652;-80
2021/08/20 00:54:26;;;;;;;20.20;12.50;;;;;;;16.09;94.83;100732.49;110988;1203;59398;-81
2021/08/20 00:56:53;;;;;;;19.20;12.60;;;;;;;16.11;94.50;100729.91;111191;1205;71857;-80
2021/08/20 00:59:24;;;;;;;17.20;10.90;;;;;;;16.11;93.95;100729.48;111535;1204;72637;-81
2021/08/20 01:01:51;;;;;;;16.30;10.70;;;;;;;16.11;93.77;100727.15;111318;1197;61872;-81
2021/08/20 01:04:18;;;;;;;16.50;11.70;;;;;;;16.11;93.49;100727.35;111377;1205;60192;-80
2021/08/20 01:06:45;;;;;;;21.20;12.50;;;;;;;16.11;93.54;100726.83;111399;1205;72694;-81
2021/08/20 01:09:13;;;;;;;19.60;11.50;;;;;;;16.12;93.43;100725.87;111365;1205;70980;-79
2021/08/20 01:11:39;;;;;;;16.70;11.30;;;;;;;16.13;93.29;100726.64;111285;1204;72275;-81
2021/08/20 01:14:06;;;;;;;18.70;11.60;;;;;;;16.14;93.15;100727.59;111308;1196;61977;-81
2021/08/20 01:16:33;;;;;;;22.30;12.10;;;;;;;16.12;92.89;100724.91;111272;1204;61386;-81
2021/08/20 01:19:01;;;;;;;19.20;11.90;;;;;;;16.12;93.17;100728.88;111388;1204;73063;-82
2021/08/20 01:21:28;;;;;;;19.50;12.00;;;;;;;16.10;92.78;100727.85;111328;1205;72119;-81
2021/08/20 01:23:57;;;;;;;14.00;8.70;;;;;;;16.09;92.85;100727.66;111272;1200;72919;-81
2021/08/20 01:26:25;;;;;;;17.50;11.20;;;;;;;16.07;92.76;100728.55;111471;1204;63642;-79
2021/08/20 01:28:52;;;;;;;20.40;11.80;;;;;;;16.07;92.89;100727.61;111408;1196;60277;-81
2021/08/20 01:31:19;;;;;;;19.60;11.20;;;;;;;16.06;92.84;100727.16;111284;1205;73290;-81
2021/08/20 01:33:46;;;;;;;16.10;10.90;;;;;;;16.05;93.00;100724.23;111347;1196;70968;-82
2021/08/20 01:36:13;;;;;;;18.50;12.10;;;;;;;16.07;93.22;100723.11;111453;1204;73454;-82
2021/08/20 01:38:54;;;;;;;17.80;12.90;;;;;;;16.08;92.96;100724.75;111329;1206;62379;-81
2021/08/20 01:41:23;;;;;;;22.40;12.70;;;;;;;16.04;92.17;100720.70;111200;1205;60261;-82
2021/08/20 01:43:51;;;;;;;21.80;12.50;;;;;;;15.99;92.18;100722.77;111345;1195;73538;-81
2021/08/20 01:46:18;;;;;;;22.20;11.60;;;;;;;15.96;91.94;100725.41;111357;1205;72445;-79
2021/08/20 01:48:48;;;;;;;19.70;12.00;;;;;;;15.89;92.08;100724.94;111355;1204;74315;-82
2021/08/20 01:51:16;;;;;;;18.30;11.70;;;;;;;15.85;92.38;100724.29;111366;1200;61589;-81
2021/08/20 01:53:43;;;;;;;17.70;12.20;;;;;;;15.82;92.44;100725.45;111420;1204;61476;-80
2021/08/20 01:56:18;;;;;;;14.90;9.90;;;;;;;15.77;92.52;100728.05;111280;1196;73942;-81
2021/08/20 01:58:46;;;;;;;14.90;10.00;;;;;;;15.73;92.69;100727.39;111053;1204;70928;-81
2021/08/20 02:01:25;;;;;;;18.40;12.00;;;;;;;15.70;93.06;100727.69;111430;1195;72480;-82
2021/08/20 02:03:52;;;;;;;22.50;11.90;;;;;;;15.69;93.05;100723.79;111427;1205;61873;-83
2021/08/20 02:06:19;;;;;;;16.10;11.10;;;;;;;15.68;93.19;100721.08;111318;1203;60280;-81
2021/08/20 02:08:46;;;;;;;18.30;13.30;;;;;;;15.69;93.03;100718.48;111239;1200;72546;-81
2021/08/20 02:11:12;;;;;;;24.10;13.50;;;;;;;15.69;93.00;100718.06;111256;1204;59474;-79
2021/08/20 02:13:40;;;;;;;20.50;13.50;;;;;;;15.68;93.03;100722.10;111300;1205;72543;-80
2021/08/20 02:16:07;;;;;;;26.60;14.00;;;;;;;15.69;93.14;100717.95;111305;1205;61872;-81
2021/08/20 02:18:34;;;;;;;18.10;12.80;;;;;;;15.69;93.11;100721.08;111349;1205;59961;-80
2021/08/20 02:21:01;;;;;;;22.60;14.70;;;;;;;15.71;93.00;100726.02;111411;1198;73983;-81
2021/08/20 02:23:28;;;;;;;23.40;14.90;;;;;;;15.73;93.27;100728.84;111225;1204;72166;-81
2021/08/20 02:25:55;;;;;;;19.80;15.40;;;;;;;15.74;93.11;100729.01;111300;1197;72552;-81
2021/08/20 02:28:22;;;;;;;22.60;13.50;;;;;;;15.77;93.13;100726.69;110964;1204;63050;-81
2021/08/20 02:30:50;;;;;;;23.40;14.70;;;;;;;15.78;92.87;100726.03;111301;1197;59492;-81
2021/08/20 02:33:16;;;;;;;19.70;11.00;;;;;;;15.76;92.58;100718.91;111369;1200;73477;-81
2021/08/20 02:35:43;;;;;;;23.10;14.10;;;;;;;15.75;92.58;100721.58;111311;1203;70906;-81
2021/08/20 02:38:09;;;;;;;18.30;12.70;;;;;;;15.74;92.36;100715.25;111353;1204;59433;-81
2021/08/20 02:40:36;;;;;;;19.80;13.60;;;;;;;15.73;92.22;100714.89;111338;1203;62886;-82
2021/08/20 02:43:03;;;;;;;18.50;13.00;;;;;;;15.73;92.24;100719.63;111355;1204;60011;-82
2021/08/20 02:45:30;;;;;;;22.00;13.00;;;;;;;15.73;92.37;100720.61;111446;1202;73915;-81
2021/08/20 02:47:56;;;;;;;18.40;13.20;;;;;;;15.73;92.25;100722.17;111409;1201;70051;-81
2021/08/20 02:50:23;;;;;;;17.70;10.20;;;;;;;15.72;91.89;100718.98;111409;1195;59483;-81
2021/08/20 02:52:49;;;;;;;19.70;13.30;;;;;;;15.70;91.85;100712.75;111378;1201;59466;-80
2021/08/20 02:55:16;;;;;;;21.00;14.10;;;;;;;15.68;91.74;100711.08;111478;1195;60004;-81
2021/08/20 02:57:43;;;;;;;22.00;13.80;;;;;;;15.67;91.80;100713.50;111377;1202;72992;-81
2021/08/20 03:00:10;;;;;;;22.40;14.30;;;;;;;15.67;91.64;100713.30;111337;1201;59482;-81
2021/08/20 03:02:37;;;;;;;24.30;13.10;;;;;;;15.66;91.44;100714.33;111860;1202;73924;-81
2021/08/20 03:05:04;;;;;;;20.20;12.50;;;;;;;15.66;91.31;100716.71;111378;1202;62008;-81
2021/08/20 03:07:31;;;;;;;18.70;12.40;;;;;;;15.64;91.17;100718.02;111425;1201;59990;-84
2021/08/20 03:09:57;;;;;;;17.90;12.50;;;;;;;15.63;91.08;100718.27;111281;1202;74147;-83
2021/08/20 03:12:24;;;;;;;19.20;13.60;;;;;;;15.63;90.99;100715.36;111483;1201;70956;-80
2021/08/20 03:14:52;;;;;;;23.10;12.70;;;;;;;15.62;90.85;100714.37;111345;1201;73522;-80
2021/08/20 03:17:18;;;;;;;21.90;13.60;;;;;;;15.61;90.73;100705.11;111325;1202;63511;-82
2021/08/20 03:19:46;;;;;;;22.30;14.70;;;;;;;15.61;90.56;100705.56;111295;1195;59377;-80
2021/08/20 03:22:13;;;;;;;19.20;13.50;;;;;;;15.59;90.23;100708.21;111289;1202;74013;-81
2021/08/20 03:24:39;;;;;;;19.90;14.00;;;;;;;15.57;90.11;100709.94;111348;1201;71128;-82
2021/08/20 03:27:06;;;;;;;20.30;13.60;;;;;;;15.55;90.10;100709.54;111373;1195;72462;-81
2021/08/20 03:29:33;;;;;;;18.30;12.10;;;;;;;15.53;90.07;100712.66;111287;1201;61954;-81
2021/08/20 03:31:59;;;;;;;21.60;14.80;;;;;;;15.50;90.17;100718.59;111279;1195;60253;-80
2021/08/20 03:34:26;;;;;;;20.40;12.30;;;;;;;15.48;90.22;100719.20;111124;1201;60269;-81
2021/08/20 03:36:52;;;;;;;19.10;12.80;;;;;;;15.47;89.94;100721.41;111297;1201;60288;-81
2021/08/20 03:39:19;;;;;;;17.80;10.80;;;;;;;15.46;89.84;100724.66;111291;1202;60363;-80
2021/08/20 03:41:45;;;;;;;18.80;12.80;;;;;;;15.46;89.59;100727.59;111440;1202;60205;-80
2021/08/20 03:44:12;;;;;;;20.00;11.80;;;;;;;15.45;89.74;100723.40;111407;1202;60246;-81
2021/08/20 03:46:38;;;;;;;16.70;11.20;;;;;;;15.45;89.44;100724.15;111304;1202;73762;-81
2021/08/20 03:49:05;;;;;;;19.50;11.20;;;;;;;15.44;89.30;100724.80;111328;1202;60288;-81
2021/08/20 03:51:32;;;;;;;17.30;11.20;;;;;;;15.42;89.10;100727.38;111259;1200;60263;-80
2021/08/20 03:54:03;;;;;;;13.70;9.40;;;;;;;15.41;88.89;100727.77;111265;1198;63253;-79
2021/08/20 03:56:29;;;;;;;19.20;10.50;;;;;;;15.39;88.47;100726.35;111248;1202;60319;-81
2021/08/20 03:58:58;;;;;;;14.50;10.20;;;;;;;15.37;88.39;100723.11;111524;1195;74765;-81
2021/08/20 04:01:25;;;;;;;15.80;9.90;;;;;;;15.34;87.77;100721.13;111349;1201;70760;-81
2021/08/20 04:03:54;;;;;;;17.60;10.90;;;;;;;15.32;87.48;100723.27;111391;1201;72489;-80
2021/08/20 04:06:20;;;;;;;13.50;7.60;;;;;;;15.31;87.53;100727.52;111923;1194;62975;-81
2021/08/20 04:08:47;;;;;;;16.40;9.70;;;;;;;15.28;87.50;100729.40;111337;1195;60962;-81
2021/08/20 04:11:13;;;;;;;13.40;9.50;;;;;;;15.26;87.33;100726.58;111331;1202;60387;-81
2021/08/20 04:13:41;;;;;;;12.90;9.50;;;;;;;15.24;87.35;100735.20;111285;1202;72471;-81
2021/08/20 04:16:07;;;;;;;16.30;9.40;;;;;;;15.22;87.39;100741.98;111460;1202;72823;-81
2021/08/20 04:18:35;;;;;;;16.60;9.20;;;;;;;15.20;87.22;100741.85;111323;1202;62965;-79
2021/08/20 04:21:01;;;;;;;12.00;7.30;;;;;;;15.19;87.21;100740.95;111627;1202;61428;-82
2021/08/20 04:23:28;;;;;;;15.40;9.20;;;;;;;15.17;87.07;100746.41;112291;1201;73671;-81
2021/08/20 04:25:54;;;;;;;16.60;8.50;;;;;;;15.16;86.93;100749.09;111580;1202;72182;-81
2021/08/20 04:28:21;;;;;;;15.90;8.20;;;;;;;15.16;87.02;100748.60;111654;1201;60225;-81
2021/08/20 04:30:47;;;;;;;14.60;8.90;;;;;;;15.15;87.00;100747.89;111862;1201;60250;-81
2021/08/20 04:33:14;;;;;;;11.80;7.70;;;;;;;15.17;86.99;100751.95;111775;1194;60138;-80
2021/08/20 04:35:41;;;;;;;15.20;9.90;;;;;;;15.18;86.95;100749.38;111620;1201;75511;-82
2021/08/20 04:38:07;;;;;;;11.20;8.10;;;;;;;15.19;86.26;100750.48;111575;1201;72540;-81
2021/08/20 04:40:34;;;;;;;15.80;9.60;;;;;;;15.22;86.64;100754.35;111505;1201;71494;-82
2021/08/20 04:43:01;;;;;;;14.50;10.20;;;;;;;15.24;86.77;100754.44;111644;1196;60378;-80
2021/08/20 04:45:28;;;;;;;12.50;8.30;;;;;;;15.25;86.89;100757.23;111412;1202;60264;-81
2021/08/20 04:47:54;;;;;;;13.40;9.10;;;;;;;15.27;86.96;100756.70;111305;1201;73661;-81
2021/08/20 04:50:21;;;;;;;11.80;7.20;;;;;;;15.29;87.14;100745.94;111287;1201;60366;-81
2021/08/20 04:52:48;;;;;;;15.50;9.50;;;;;;;15.31;87.22;100748.58;111507;1201;72548;-80
2021/08/20 04:55:15;;;;;;;15.30;9.50;;;;;;;15.32;87.32;100750.69;111322;1202;61957;-80
2021/08/20 04:57:42;;;;;;;15.50;10.20;;;;;;;15.33;87.43;100751.10;111310;1198;60193;-81
2021/08/20 05:00:09;;;;;;;13.00;9.20;;;;;;;15.34;87.64;100750.38;111330;1199;60269;-81
2021/08/20 05:02:36;;;;;;;15.80;10.30;;;;;;;15.34;87.81;100749.58;111306;1201;71065;-81
2021/08/20 05:05:07;;;;;;;18.40;11.40;;;;;;;15.32;88.00;100751.77;111302;1195;72475;-81
2021/08/20 05:07:37;;;;;;;23.20;12.20;;;;;;;15.31;88.08;100753.17;111301;1201;62910;-80
2021/08/20 05:10:11;;;;;;;19.90;12.00;;;;;;;15.29;88.30;100757.92;111573;1202;60288;-81
2021/08/20 05:12:38;;;;;;;19.10;12.20;;;;;;;15.29;88.67;100757.48;111321;1201;74767;-83
2021/08/20 05:15:06;;;;;;;19.90;12.80;;;;;;;15.27;88.94;100764.48;111149;1195;71891;-81
2021/08/20 05:17:33;;;;;;;22.30;11.90;;;;;;;15.26;89.31;100766.57;111289;1200;73215;-82
2021/08/20 05:20:00;;;;;;;18.40;11.50;;;;;;;15.24;89.47;100769.27;111302;1201;61964;-82
2021/08/20 05:22:41;;;;;;;18.30;12.40;;;;;;;15.23;89.67;100775.44;111289;1201;60311;-83
2021/08/20 05:25:11;;;;;;;;;;;;;;;15.21;89.95;100775.36;111423;1201;73752;-81
2021/08/20 05:27:39;;;;;;;19.40;13.30;;;;;;;15.18;90.11;100773.23;111309;1201;71295;-81
2021/08/20 05:30:06;;;;;;;21.90;12.90;;;;;;;15.17;90.15;100775.42;111258;1201;72940;-82
2021/08/20 05:32:33;;;;;;;17.50;10.50;;;;;;;15.17;89.48;100779.05;111128;1195;60311;-84
2021/08/20 05:35:00;;;;;;;22.50;13.70;;;;;;;15.16;89.76;100779.21;111341;1201;60201;-81
2021/08/20 05:37:27;;;;;;;20.10;12.40;;;;;;;15.15;89.93;100779.50;111381;1201;75505;-80
2021/08/20 05:39:53;;;;;;;20.30;12.90;;;;;;;15.15;89.60;100781.11;111372;1202;71167;-81
2021/08/20 05:42:20;;;;;;;26.50;13.10;;;;;;;15.16;89.55;100779.14;111333;1196;60250;-82
2021/08/20 05:44:47;;;;;;;23.00;13.70;;;;;;;15.19;89.62;100776.67;111320;1201;63668;-80
2021/08/20 05:47:14;;;;;;;14.40;9.40;;;;;;;15.21;89.58;100782.84;111368;1200;60279;-80
2021/08/20 05:49:40;;;;;;;17.70;9.40;;;;;;;15.24;89.14;100786.67;111327;1201;74775;-81
2021/08/20 05:52:07;;;;;;;17.60;12.70;;;;;;;15.27;88.80;100783.34;111256;1203;72148;-80
2021/08/20 05:54:35;;;;;;;18.50;12.00;;;;;;;15.33;88.30;100787.75;111342;1201;73440;-81
2021/08/20 05:57:01;;;;;;;19.50;11.90;;;;;;;15.42;88.09;100785.66;111330;1201;61749;-82
2021/08/20 05:59:28;;;;;;;18.00;12.40;;;;;;;15.50;87.85;100780.98;111382;1201;61175;-82
2021/08/20 06:01:55;;;;;;;16.80;10.50;;;;;;;15.59;87.07;100780.08;111264;1201;73685;-81
2021/08/20 06:04:22;;;;;;;24.00;13.20;;;;;;;15.65;86.84;100780.61;111225;1201;70897;-81
2021/08/20 06:06:48;;;;;;;19.30;11.30;;;;;;;15.69;86.14;100780.31;111192;1201;61349;-81
2021/08/20 06:09:16;;;;;;;18.20;12.00;;;;;;;15.74;85.94;100776.27;111162;1202;61843;-80
2021/08/20 06:11:42;;;;;;;20.70;10.10;;;;;;;15.78;85.66;100776.26;111528;1195;60376;-82
2021/08/20 06:14:09;;;;;;;16.40;10.80;;;;;;;15.83;85.15;100778.41;111357;1201;61448;-82
2021/08/20 06:16:35;;;;;;;16.90;9.70;;;;;;;15.90;85.14;100784.03;111397;1201;60273;-82
2021/08/20 06:19:02;;;;;;;13.70;8.90;;;;;;;15.96;84.71;100784.40;111383;1201;72481;-82
2021/08/20 06:21:29;;;;;;;15.60;10.20;;;;;;;16.01;84.27;100788.35;111256;1197;60231;-81
2021/08/20 06:23:55;;;;;;;11.10;7.70;;;;;;;16.10;83.58;100790.84;111120;1201;61063;-81
2021/08/20 06:26:22;;;;;;;16.70;10.50;;;;;;;16.18;82.75;100794.27;111333;1201;60502;-80
2021/08/20 06:28:48;;;;;;;15.70;9.60;;;;;;;16.32;82.32;100796.64;111434;1201;60257;-80
2021/08/20 06:31:15;;;;;;;10.70;7.40;;;;;;;16.46;81.44;100793.76;111346;1201;60362;-80
2021/08/20 06:33:41;;;;;;;14.10;8.30;;;;;;;16.57;81.27;100801.40;111330;1201;60221;-81
2021/08/20 06:36:08;;;;;;;16.80;10.40;;;;;;;16.63;79.96;100796.12;111134;1195;60212;-80
2021/08/20 06:38:34;;;;;;;15.10;9.30;;;;;;;16.71;80.11;100798.55;111323;1201;60220;-81
2021/08/20 06:41:01;;;;;;;11.70;7.80;;;;;;;16.86;79.54;100799.34;111241;1201;61538;-80
2021/08/20 06:43:28;;;;;;;13.90;8.50;;;;;;;16.99;78.84;100796.63;111166;1201;60308;-80
2021/08/20 06:45:57;;;;;;;12.20;8.10;;;;;;;17.06;77.18;100798.44;111260;1201;61554;-75
2021/08/20 06:48:24;;;;;;;11.10;6.70;;;;;;;17.16;77.11;100800.70;111082;1195;60397;-77
2021/08/20 06:50:52;;;;;;;9.40;6.30;;;;;;;17.28;76.25;100802.55;110878;1201;60265;-75
2021/08/20 06:53:19;;;;;;;9.90;6.30;;;;;;;17.39;75.10;100805.12;111001;1201;70249;-76
2021/08/20 06:55:45;;;;;;;14.90;8.60;;;;;;;17.44;75.14;100808.83;110928;1201;72437;-77
2021/08/20 06:58:12;;;;;;;11.60;7.70;;;;;;;17.45;74.19;100814.65;111175;1201;61407;-75
2021/08/20 07:00:38;;;;;;;10.40;7.30;;;;;;;17.44;73.93;100810.73;110972;1195;60958;-75
2021/08/20 07:03:05;;;;;;;11.30;7.70;;;;;;;17.32;73.55;100819.89;110879;1201;73812;-74
2021/08/20 07:05:33;;;;;;;10.00;6.20;;;;;;;17.26;74.67;100823.86;110929;1202;70773;-75
2021/08/20 07:08:00;;;;;;;13.00;7.90;;;;;;;17.13;74.94;100824.34;114786;1193;73460;-75
2021/08/20 07:10:26;;;;;;;10.60;6.30;;;;;;;17.08;75.15;100830.80;113344;1193;60273;-74
2021/08/20 07:12:53;;;;;;;10.80;6.60;;;;;;;16.99;74.98;100827.84;110980;1202;61441;-74
2021/08/20 07:15:20;;;;;;;8.80;5.80;;;;;;;16.96;75.00;100830.87;111148;1196;73848;-74
2021/08/20 07:17:47;;;;;;;7.90;5.90;;;;;;;16.90;74.89;100830.27;111189;1201;71202;-74
2021/08/20 07:20:14;;;;;;;11.60;7.30;;;;;;;16.94;75.43;100828.86;111117;1201;60288;-74
2021/08/20 07:22:43;;;;;;;11.70;8.00;;;;;;;16.96;75.34;100829.75;111140;1194;61777;-74
2021/08/20 07:25:10;;;;;;;11.80;6.60;;;;;;;17.00;75.70;100829.52;110974;1202;60280;-75
2021/08/20 07:27:37;;;;;;;11.30;6.50;;;;;;;17.03;75.85;100832.48;111097;1201;74708;-75
2021/08/20 07:30:05;;;;;;;10.60;6.90;;;;;;;17.04;75.75;100826.36;111093;1202;60292;-73
2021/08/20 07:32:32;;;;;;;15.80;7.60;;;;;;;17.08;76.02;100831.88;111263;1202;72635;-75
2021/08/20 07:34:58;;;;;;;10.10;7.90;;;;;;;17.10;75.97;100827.36;111134;1201;60253;-73
2021/08/20 07:37:25;;;;;;;11.90;8.10;;;;;;;17.14;76.01;100830.85;111133;1196;60255;-74
2021/08/20 07:39:51;;;;;;;13.40;6.80;;;;;;;17.23;76.37;100827.13;111071;1195;60296;-74
2021/08/20 07:42:19;;;;;;;14.70;7.00;;;;;;;17.31;76.36;100835.25;111097;1202;60288;-74
2021/08/20 07:44:50;;;;;;;9.70;5.60;;;;;;;17.34;76.54;100830.65;111197;1201;72502;-74
2021/08/20 07:47:16;;;;;;;9.60;6.20;;;;;;;17.44;76.70;100831.65;110915;1201;61370;-74
2021/08/20 07:49:43;;;;;;;8.10;6.00;;;;;;;17.54;76.40;100828.79;110896;1195;60204;-74
2021/08/20 07:52:10;;;;;;;13.00;6.70;;;;;;;17.66;75.89;100827.66;111070;1195;72555;-76
2021/08/20 07:54:37;;;;;;;9.60;5.30;;;;;;;17.64;74.57;100835.23;110867;1201;60295;-74
2021/08/20 07:57:04;;;;;;;9.90;6.50;;;;;;;17.65;74.36;100829.89;110796;1202;72483;-75
2021/08/20 07:59:30;;;;;;;12.60;7.80;;;;;;;17.69;74.47;100834.27;110832;1201;61711;-74
2021/08/20 08:01:56;;;;;;;12.30;6.40;;;;;;;17.73;74.42;100837.67;111124;1201;60176;-75
2021/08/20 08:04:23;;;;;;;12.40;6.10;;;;;;;17.70;73.84;100844.26;110828;1195;76625;-74
2021/08/20 08:06:50;;;;;;;13.30;7.70;;;;;;;17.68;73.95;100836.42;110821;1201;60673;-76
2021/08/20 08:09:16;;;;;;;10.30;7.20;;;;;;;17.78;74.09;100839.33;110817;1202;60289;-74
2021/08/20 08:11:43;;;;;;;12.90;6.60;;;;;;;17.87;73.37;100844.98;110798;1201;60272;-74
2021/08/20 08:14:09;;;;;;;11.00;6.80;;;;;;;17.78;73.02;100842.50;110823;1195;61354;-75
2021/08/20 08:16:39;;;;;;;9.20;6.20;;;;;;;17.78;73.55;100843.63;110864;1201;73461;-75
2021/08/20 08:19:06;;;;;;;8.30;5.40;;;;;;;17.76;73.55;100846.19;110884;1201;70985;-75
2021/08/20 08:21:34;;;;;;;11.40;7.00;;;;;;;17.82;73.28;100854.38;110775;1202;74259;-75
2021/08/20 08:24:01;;;;;;;13.30;7.80;;;;;;;17.96;73.17;100855.98;111145;1201;61855;-75
2021/08/20 08:26:28;;;;;;;9.30;6.80;;;;;;;18.07;72.69;100859.37;111017;1201;60300;-75
2021/08/20 08:28:55;;;;;;;12.00;8.00;;;;;;;18.25;72.64;100860.81;110892;1196;75278;-77
2021/08/20 08:31:23;;;;;;;11.10;5.90;;;;;;;18.27;71.81;100868.48;110877;1201;72698;-78
2021/08/20 08:33:51;;;;;;;10.20;6.50;;;;;;;18.30;71.82;100875.14;110942;1195;72571;-77
2021/08/20 08:36:19;;;;;;;10.90;8.50;;;;;;;18.33;71.39;100874.41;110918;1201;60889;-75
2021/08/20 08:38:45;;;;;;;9.40;6.70;;;;;;;18.36;71.54;100882.89;110790;1201;61709;-76
2021/08/20 08:41:12;;;;;;;12.70;8.10;;;;;;;18.31;71.72;100886.98;110893;1201;73526;-76
2021/08/20 08:43:40;;;;;;;13.50;8.40;;;;;;;18.36;72.39;100875.80;110899;1195;60245;-77
2021/08/20 08:46:10;;;;;;;10.70;7.60;;;;;;;18.31;71.68;100882.62;111342;1201;73605;-77
2021/08/20 08:48:40;;;;;;;11.90;8.30;;;;;;;18.29;72.28;100879.08;111002;1201;60834;-78
2021/08/20 08:51:12;;;;;;;12.50;8.70;;;;;;;18.37;71.86;100875.30;110856;1201;61202;-76
2021/08/20 08:53:39;;;;;;;11.90;8.00;;;;;;;18.58;71.45;100874.61;110924;1201;73928;-76
2021/08/20 08:56:06;;;;;;;12.00;8.50;;;;;;;18.70;70.12;100885.94;110975;1195;70970;-77
2021/08/20 08:58:32;;;;;;;12.50;8.90;;;;;;;18.89;69.17;100882.85;110805;1201;72574;-76
2021/08/20 09:00:59;;;;;;;12.10;7.40;;;;;;;19.01;68.86;100887.92;110866;1201;60482;-77
2021/08/20 09:03:28;;;;;;;22.70;7.60;;;;;;;19.01;69.19;100886.16;111451;1195;60273;-77
2021/08/20 09:05:57;;;;;;;11.40;7.10;;;;;;;19.06;68.94;100887.64;111243;1194;73721;-76
2021/08/20 09:08:26;;;;;;;13.40;7.90;;;;;;;18.97;67.78;100889.48;111149;1203;72517;-76
2021/08/20 09:11:01;;;;;;;13.70;8.80;;;;;;;18.81;67.93;100886.63;111596;1201;71601;-77
2021/08/20 09:13:31;;;;;;;11.30;7.80;;;;;;;18.89;69.11;100891.20;111607;1201;60279;-77
2021/08/20 09:16:12;;;;;;;9.10;7.10;;;;;;;18.99;68.28;100894.23;111051;1201;60312;-76
2021/08/20 09:18:41;;;;;;;10.50;7.00;;;;;;;19.12;67.97;100896.61;110899;1201;74647;-76
2021/08/20 09:21:13;;;;;;;11.60;8.10;;;;;;;19.25;66.64;100895.84;110985;1201;71056;-76
2021/08/20 09:23:39;;;;;;;14.20;8.00;;;;;;;19.39;65.49;100889.73;110996;1201;71679;-78
2021/08/20 09:26:06;;;;;;;11.80;8.50;;;;;;;19.55;64.47;100891.69;110956;1201;61468;-76
2021/08/20 09:28:34;;;;;;;11.30;7.10;;;;;;;19.71;64.28;100894.98;111175;1201;61129;-77
2021/08/20 09:31:12;;;;;;;11.30;6.80;;;;;;;19.95;63.85;100897.35;111343;1201;74754;-77
2021/08/20 09:33:41;;;;;;;10.70;7.70;;;;;;;20.21;61.61;100899.31;111222;1202;70920;-78
2021/08/20 09:36:13;;;;;;;12.20;6.80;;;;;;;20.35;62.15;100898.27;111175;1201;73568;-76
2021/08/20 09:38:43;;;;;;;10.30;6.70;;;;;;;20.18;61.22;100899.16;111171;1201;60358;-77
2021/08/20 09:41:13;;;;;;;10.70;6.30;;;;;;;19.97;60.98;100906.23;111118;1198;60359;-77
2021/08/20 09:43:42;;;;;;;11.10;6.00;;;;;;;19.80;61.96;100906.78;111120;1201;73815;-76
2021/08/20 09:46:10;;;;;;;12.20;8.00;;;;;;;19.78;62.43;100902.46;111039;1201;71268;-74
2021/08/20 09:48:47;;;;;;;10.40;7.20;;;;;;;19.83;62.79;100900.27;111122;1195;72414;-77
2021/08/20 09:51:35;;;;;;;11.90;7.10;;;;;;;20.04;62.31;100899.39;111069;1201;60288;-76
2021/08/20 09:54:05;;;;;;;10.90;6.60;;;;;;;20.19;61.45;100900.88;111045;1195;61487;-76
2021/08/20 09:56:52;;;;;;;6.50;4.80;;;;;;;20.49;60.99;100896.01;111162;1195;74706;-77
2021/08/20 09:59:19;;;;;;;7.10;4.60;;;;;;;20.82;59.36;100900.30;111136;1201;72412;-77
2021/08/20 10:01:48;;;;;;;8.40;6.20;;;;;;;21.07;57.93;100898.75;111316;1201;71720;-77
2021/08/20 10:04:17;;;;;;;10.30;6.10;;;;;;;21.11;56.89;100896.39;111463;1193;61523;-76
2021/08/20 10:06:46;;;;;;;7.90;5.70;;;;;;;21.18;56.77;100894.65;110947;1201;60757;-77
2021/08/20 10:09:17;;;;;;;7.80;6.00;;;;;;;21.27;56.58;100897.94;111173;1201;74753;-76
2021/08/20 10:11:52;;;;;;;7.70;5.70;;;;;;;21.28;55.11;100897.67;110990;1201;71820;-76
2021/08/20 10:14:27;;;;;;;9.00;6.10;;;;;;;21.20;55.36;100897.38;111151;1201;73953;-77
2021/08/20 10:16:53;;;;;;;8.00;5.90;;;;;;;21.24;56.12;100888.43;110949;1201;60293;-76
2021/08/20 10:19:20;;;;;;;6.70;4.50;;;;;;;21.31;55.52;100892.95;111023;1196;61683;-76
2021/08/20 10:21:47;;;;;;;8.20;4.60;;;;;;;21.27;55.02;100891.34;111097;1196;74949;-77
2021/08/20 10:24:15;;;;;;;6.40;4.20;;;;;;;21.14;54.79;100901.91;110788;1197;71978;-76
2021/08/20 10:26:47;;;;;;;8.60;4.90;;;;;;;20.91;55.26;100908.73;111207;1201;73733;-76
2021/08/20 10:29:14;;;;;;;8.50;4.40;;;;;;;20.80;55.99;100905.48;111241;1203;61395;-78
2021/08/20 10:31:44;;;;;;;9.30;5.80;;;;;;;20.74;56.16;100908.16;110944;1201;60912;-76
2021/08/20 10:34:28;;;;;;;6.40;4.90;;;;;;;20.96;56.40;100904.36;110825;1201;74897;-77
2021/08/20 10:37:05;;;;;;;8.20;5.10;;;;;;;21.05;55.50;100911.23;110893;1201;70835;-77
2021/08/20 10:39:31;;;;;;;7.50;4.50;;;;;;;20.97;55.32;100905.88;110878;1201;71597;-75
2021/08/20 10:42:15;;;;;;;8.30;3.80;;;;;;;20.92;54.81;100905.48;110867;1201;60391;-76
2021/08/20 10:44:44;;;;;;;7.50;5.10;;;;;;;20.82;55.40;100905.11;110890;1201;61267;-76
2021/08/20 10:47:28;;;;;;;7.80;4.90;;;;;;;20.83;55.63;100906.35;111032;1201;73903;-76
2021/08/20 10:50:16;;;;;;;8.40;5.10;;;;;;;20.76;55.34;100914.89;111082;1201;71216;-78
2021/08/20 10:52:45;;;;;;;8.20;5.30;;;;;;;20.87;56.10;100903.09;110938;1201;72616;-76
2021/08/20 10:55:30;;;;;;;6.20;4.40;;;;;;;21.05;55.93;100907.63;110986;1201;61142;-75
2021/08/20 10:58:00;;;;;;;6.40;4.10;;;;;;;21.33;54.75;100907.13;110900;1201;60261;-77
2021/08/20 11:00:31;;;;;;;6.50;4.30;;;;;;;21.57;53.65;100910.06;110948;1201;74159;-77
2021/08/20 11:03:08;;;;;;;6.30;3.50;;;;;;;21.73;53.03;100905.07;111003;1201;71163;-77
2021/08/20 11:05:36;;;;;;;6.20;3.60;;;;;;;21.78;53.26;100905.19;110997;1201;72324;-77
2021/08/20 11:08:03;;;;;;;7.40;3.20;;;;;;;21.69;52.71;100910.88;110895;1201;62128;-76
2021/08/20 11:10:31;;;;;;;7.80;4.10;;;;;;;21.53;53.09;100913.89;110878;1201;60348;-77